Terminal Aerodrome Forecast
Issued by NWS Sioux Falls, SD

Home | Current Version | Previous Version | Graphics & Text | Print | Product List | Glossary On
Versions: 1 2 3 4 5 6 7 8 9 10 11 12 13
567
FTUS43 KFSD 302320
TAFHON
TAF
KHON 302320Z 0100/0124 03013G24KT P6SM VCSH OVC060
     FM010300 02012KT P6SM VCSH OVC050
     FM011100 35014KT P6SM BKN080
     FM011600 34017G25KT P6SM SCT110=

USA.gov is the U.S. government's official web portal to all federal, state and local government web resources and services.